• Join FlightAware (Why Join?)
  • Login
  • US Flag 
12:24AM EDT


 

Airport Tracker/Info


-or-


 

Live Flight TrackerFlight Track Log ✈ N100PM ✈ 03-Nov-2013 ✈ KLBB - KASL

Flight Track Log - Related Links

Times and Time Zones

All times are in EST time to prevent confusion due to time zone crossing. See the N100PM flight status page for this flight to view local times or setup timezone preferences in your user account.

Time Position Orientation Groundspeed Altitude Reporting Facility
EST Latitude Longitude Course Direction KTS MPH feet Rate Location/Type
05:03PM 34.0064 -100.8058 104° East 121 139 9,300  Level Fort Worth Center
05:04PM 34.0011 -100.7631 98° East 116 133 9,600 120 Climbing Fort Worth Center
05:05PM 33.9894 -100.7275 112° Southeast 111 128 9,600 -720 Level Fort Worth Center
05:06PM 33.9675 -100.6992 133° Southeast 111 128 8,200 -1,020 Descending Fort Worth Center
05:07PM 33.9558 -100.6586 109° East 122 140 7,600 -180 Descending Fort Worth Center
05:08PM 33.4538 -100.1714 104° East  Level Estimated
05:08PM 33.9486 -100.6158 101° East 122 140 7,900  Level Fort Worth Center
05:09PM 33.9411 -100.5806 104° East 117 135 8,300 300 Climbing Fort Worth Center
05:10PM 33.9403 -100.5378 91° East 105 121 8,600 300 Climbing Fort Worth Center
05:11PM 33.9389 -100.5053 93° East 105 121 8,900 300 Climbing Fort Worth Center
05:12PM 33.9356 -100.4700 96° East 110 127 9,200 240 Climbing Fort Worth Center
05:13PM 33.9367 -100.4275 88° East 104 120 9,400 120 Climbing Fort Worth Center
05:14PM 33.9311 -100.3950 102° East 104 120 9,500  Climbing Fort Worth Center
05:15PM 33.9217 -100.3569 107° East 104 120 9,500  Level Fort Worth Center
05:16PM 33.9100 -100.3142 108° East 114 131 9,500  Level Fort Worth Center
05:17PM 33.9006 -100.2786 108° East 114 131 9,500  Level Fort Worth Center
05:18PM 33.8908 -100.2408 107° East 114 131 9,500  Level Fort Worth Center
05:19PM 33.8814 -100.1981 105° East 114 131 9,500  Level Fort Worth Center
05:20PM 33.8719 -100.1603 107° East 114 131 9,500  Level Fort Worth Center
05:21PM 33.8644 -100.1200 103° East 119 137 9,500  Level Fort Worth Center
05:22PM 33.8547 -100.0772 105° East 124 143 9,500 60 Level Fort Worth Center
05:23PM 33.8494 -100.0369 99° East 124 143 9,700  Climbing Fort Worth Center
05:24PM 33.8356 -99.9992 114° Southeast 124 143 9,600 -60 Descending Fort Worth Center
05:25PM 33.8261 -99.9564 105° East 129 148 9,600  Level Fort Worth Center
05:26PM 33.8186 -99.9136 102° East 129 148 9,600  Level Fort Worth Center
05:27PM 33.8111 -99.8708 102° East 129 148 9,600  Level Fort Worth Center
05:28PM 33.8036 -99.8281 102° East 129 148 9,600  Level Fort Worth Center
05:29PM 33.7981 -99.7856 99° East 129 148 9,600  Level Fort Worth Center
05:30PM 33.7886 -99.7428 105° East 123 142 9,600  Level Fort Worth Center
05:31PM 33.7811 -99.6975 101° East 123 142 9,600  Level Fort Worth Center
05:32PM 33.7733 -99.6575 103° East 123 142 9,600  Level Fort Worth Center
05:33PM 33.7658 -99.6172 103° East 123 142 9,600  Level Fort Worth Center
05:34PM 33.7581 -99.5769 103° East 123 142 9,600  Level Fort Worth Center
05:35PM 33.7483 -99.5344 105° East 129 148 9,600  Level Fort Worth Center
05:36PM 33.7386 -99.4917 105° East 124 143 9,600  Level Fort Worth Center
05:37PM 33.7331 -99.4517 99° East 124 143 9,600  Level Fort Worth Center
05:38PM 33.7272 -99.4189 102° East 124 143 9,600  Level Fort Worth Center
05:39PM 33.7197 -99.3789 103° East 124 143 9,600  Level Fort Worth Center
05:40PM 33.7078 -99.3361 109° East 124 143 9,600  Level Fort Worth Center
05:41PM 33.6981 -99.2958 106° East 124 143 9,600  Level Fort Worth Center
05:42PM 33.6900 -99.2583 104° East 124 143 9,600  Level Fort Worth Center
05:43PM 33.6822 -99.2233 105° East 124 143 9,600  Level Fort Worth Center
05:44PM 33.6744 -99.1856 104° East 119 137 9,600  Level Fort Worth Center
05:45PM 33.6647 -99.1456 106° East 114 131 9,600  Level Fort Worth Center
05:46PM 33.6567 -99.1078 104° East 114 131 9,600  Level Fort Worth Center
05:47PM 33.6489 -99.0703 104° East 109 125 9,600  Level Fort Worth Center
05:48PM 33.6411 -99.0378 106° East 109 125 9,600 -60 Level Fort Worth Center
05:49PM 33.6331 -98.9978 104° East 109 125 9,500 -120 Descending Fort Worth Center
05:50PM 33.6253 -98.9525 102° East 109 125 9,400  Descending Fort Worth Center
05:51PM 33.6156 -98.9150 107° East 109 125 9,500  Climbing Fort Worth Center
05:52PM 33.6075 -98.8775 104° East 109 125 9,500  Level Fort Worth Center
05:53PM 33.5997 -98.8400 104° East 114 131 9,500  Level Fort Worth Center
05:54PM 33.5917 -98.8025 104° East 114 131 9,500  Level Fort Worth Center
05:55PM 33.5817 -98.7597 106° East 114 131 9,500  Level Fort Worth Center
05:56PM 33.5717 -98.7222 108° East 114 131 9,500  Level Fort Worth Center
05:57PM 33.5658 -98.6847 101° East 114 131 9,500  Level Fort Worth Center
05:58PM 33.5558 -98.6497 109° East 114 131 9,500  Level Fort Worth Center
05:59PM 33.5497 -98.6122 101° East 114 131 9,500  Level Fort Worth Center
06:00PM 33.5397 -98.5672 105° East 119 137 9,500  Level Fort Worth Center
06:01PM 33.5319 -98.5272 103° East 124 143 9,500 -60 Level Fort Worth Center
06:02PM 33.5239 -98.4875 104° East 124 143 9,400  Descending Fort Worth Center
06:03PM 33.5178 -98.4525 102° East 124 143 9,500  Climbing Fort Worth Center
06:04PM 33.5078 -98.4125 107° East 124 143 9,500  Level Fort Worth Center
06:05PM 33.4978 -98.3700 106° East 124 143 9,500  Level Fort Worth Center
06:06PM 33.4894 -98.3325 105° East 124 143 9,500  Level Fort Worth Center
06:07PM 33.4772 -98.2950 111° Southeast 124 143 9,500 -60 Level Fort Worth Center
06:08PM 33.4631 -98.2650 120° Southeast 124 143 9,400  Descending Fort Worth Center
06:09PM 33.4569 -98.2250 100° East 119 137 9,500  Climbing Fort Worth Center
06:10PM 33.4531 -98.1853 97° East 114 131 9,500  Level Fort Worth Center
06:11PM 33.4469 -98.1428 100° East 114 131 9,500  Level Fort Worth Center
06:12PM 33.4389 -98.1031 104° East 122 140 9,500  Level Fort Worth Center
06:13PM 33.4286 -98.0656 108° East 115 132 9,500  Level Fort Worth Center
06:14PM 33.4164 -98.0331 114° Southeast 109 125 9,500  Level Fort Worth Center
06:15PM 33.4081 -97.9933 104° East 109 125 9,500  Level Fort Worth Center
06:16PM 33.4019 -97.9583 102° East 109 125 9,500  Level Fort Worth Center
06:17PM 33.3917 -97.9186 107° East 109 125 9,500  Level Fort Worth Center
06:18PM 33.3856 -97.8836 102° East 109 125 9,500  Level Fort Worth Center
06:19PM 33.3775 -97.8439 104° East 109 125 9,500  Level Fort Worth Center
06:20PM 33.3692 -97.8064 105° East 109 125 9,600  Climbing Fort Worth Center
06:21PM 33.3589 -97.7692 108° East 109 125 9,600  Level Fort Worth Center
06:22PM 33.3506 -97.7292 104° East 109 125 9,600  Level Fort Worth Center
06:23PM 33.3403 -97.6919 108° East 109 125 9,600  Level Fort Worth Center
06:24PM 33.3300 -97.6522 107° East 109 125 9,600  Level Fort Worth Center
06:25PM 33.3217 -97.6147 105° East 109 125 9,700 120 Climbing Fort Worth Center
06:26PM 33.3239 -97.5725 86° East 114 131 9,900 180 Climbing Fort Worth Center
06:27PM 33.3217 -97.5328 94° East 119 137 10,100 120 Climbing Fort Worth Center
06:28PM 33.3281 -97.4981 78° East 119 137 10,200 -120 Climbing Fort Worth Center
06:29PM 33.3364 -97.4508 78° East 124 143 9,900 -360 Descending Fort Worth Center
06:30PM 33.3447 -97.4086 77° East 129 148 9,500 -300 Descending Fort Worth Center
06:31PM 33.3531 -97.3611 78° East 129 148 9,400  Descending Fort Worth Center
06:32PM 33.3572 -97.3239 82° East 124 143 9,500  Climbing Fort Worth Center
06:33PM 33.3614 -97.2767 84° East 124 143 9,500  Level Fort Worth Center
06:35PM 33.3667 -97.2000 85° East 125 144 9,500  Level Dallas / Fort Worth TRACON
06:36PM 33.3667 -97.1667 90° East 125 144 9,500  Level Dallas / Fort Worth TRACON
06:37PM 33.3667 -97.1333 90° East 126 145 9,500  Level Dallas / Fort Worth TRACON
06:38PM 33.3500 -97.1000 121° Southeast 113 130 9,500  Level Dallas / Fort Worth TRACON
06:39PM 33.3333 -97.0667 121° Southeast 117 135 9,500  Level Dallas / Fort Worth TRACON
06:40PM 33.3333 -97.0167 90° East 119 137 9,500  Level Dallas / Fort Worth TRACON
06:41PM 33.3167 -96.9833 121° Southeast 121 139 9,500  Level Dallas / Fort Worth TRACON
06:42PM 33.3000 -96.9500 121° Southeast 126 145 9,500  Level Dallas / Fort Worth TRACON
06:42PM 33.3000 -96.9167 90° East 127 146 9,500  Level Dallas / Fort Worth TRACON
06:43PM 33.2833 -96.8667 112° Southeast 124 143 9,500  Level Dallas / Fort Worth TRACON
06:45PM 33.2667 -96.8333 121° Southeast 124 143 9,500  Level Dallas / Fort Worth TRACON
06:46PM 33.2667 -96.7833 90° East 120 138 9,500  Level Dallas / Fort Worth TRACON
06:46PM 33.2500 -96.7500 121° Southeast 114 131 9,500  Level Dallas / Fort Worth TRACON
06:48PM 33.2333 -96.7167 121° Southeast 117 135 9,500  Level Dallas / Fort Worth TRACON
06:49PM 33.2333 -96.6833 90° East 125 144 9,500  Level Dallas / Fort Worth TRACON
06:49PM 33.2167 -96.6500 121° Southeast 127 146 9,500  Level Dallas / Fort Worth TRACON
06:51PM 33.2000 -96.6000 112° Southeast 126 145 9,500  Level Dallas / Fort Worth TRACON
06:51PM 33.2000 -96.5667 90° East 121 139 9,500  Level Dallas / Fort Worth TRACON
06:53PM 33.1767 -96.4975 112° Southeast 126 145 9,500  Level Fort Worth Center
06:54PM 33.1681 -96.4631 107° East 120 138 9,500  Level Fort Worth Center
06:55PM 33.1594 -96.4283 106° East 120 138 9,500  Level Fort Worth Center
06:56PM 33.1464 -96.3886 111° Southeast 120 138 9,500  Level Fort Worth Center
06:57PM 33.1378 -96.3542 107° East 120 138 9,500  Level Fort Worth Center
06:58PM 33.1228 -96.3097 112° Southeast 120 138 9,500  Level Fort Worth Center
06:59PM 33.1142 -96.2775 108° East 125 144 9,500  Level Fort Worth Center
07:00PM 33.1014 -96.2356 110° East 125 144 9,500  Level Fort Worth Center
07:01PM 33.0928 -96.2058 109° East 113 130 9,500  Level Fort Worth Center
07:02PM 33.0797 -96.1689 113° Southeast 113 130 9,500  Level Fort Worth Center
07:03PM 33.0711 -96.1317 105° East 113 130 9,500  Level Fort Worth Center
07:04PM 33.0581 -96.0922 112° Southeast 118 136 9,500  Level Fort Worth Center
07:05PM 33.0494 -96.0578 107° East 118 136 9,500  Level Fort Worth Center
07:06PM 33.0386 -96.0183 108° East 112 129 9,500  Level Fort Worth Center
07:07PM 33.0300 -95.9886 109° East 112 129 9,500  Level Fort Worth Center
07:08PM 33.0189 -95.9492 109° East 112 129 9,500  Level Fort Worth Center
07:09PM 33.0103 -95.9172 108° East 112 129 9,500  Level Fort Worth Center
07:10PM 32.9972 -95.8803 113° Southeast 112 129 9,500  Level Fort Worth Center
07:11PM 32.9864 -95.8506 113° Southeast 112 129 9,500  Level Fort Worth Center
07:12PM 32.9756 -95.8136 109° East 112 129 9,500  Level Fort Worth Center
07:13PM 32.9669 -95.7817 108° East 112 129 9,500  Level Fort Worth Center
07:14PM 32.9558 -95.7447 110° East 112 129 9,500  Level Fort Worth Center
07:15PM 32.9450 -95.7128 112° Southeast 112 129 9,500 -120 Level Fort Worth Center
07:16PM 32.9342 -95.6733 108° East 112 129 9,300 -300 Descending Fort Worth Center
07:17PM 32.9253 -95.6389 107° East 112 129 8,900 -420 Descending Fort Worth Center
07:18PM 32.9144 -95.6069 112° Southeast 112 129 8,500 -480 Descending Fort Worth Center
07:19PM 32.8992 -95.5653 114° Southeast 112 129 8,000 -540 Descending Fort Worth Center
07:20PM 32.8861 -95.5258 112° Southeast 112 129 7,500 -540 Descending Fort Worth Center
07:21PM 32.8772 -95.4889 106° East 112 129 7,000 -1,020 Descending Fort Worth Center
07:22PM 32.8639 -95.4497 112° Southeast 112 129 5,500 -480 Descending Fort Worth Center
07:23PM 32.8572 -95.4128 102° East 112 129 6,100  Climbing Fort Worth Center
07:24PM 32.8461 -95.3758 110° East 117 135 5,600 -360 Descending Fort Worth Center
07:25PM 32.8289 -95.3342 116° Southeast 117 135 5,400 -120 Descending Fort Worth Center
07:26PM 32.8197 -95.2997 108° East 117 135 5,400  Level Fort Worth Center
07:27PM 32.8089 -95.2631 109° East 117 135 5,500  Climbing Fort Worth Center
07:28PM 32.7978 -95.2261 110° East 117 135 5,500  Level Fort Worth Center
07:29PM 32.7867 -95.1894 110° East 117 135 5,500  Level Fort Worth Center
07:30PM 32.7844 -95.1819 109° East 117 135 5,500  Level Fort Worth Center
07:32PM 32.7844 -95.1819 320° Northwest 117 135 5,500  Level Fort Worth Center
07:34PM 32.7844 -95.1819 320° Northwest 117 135 5,500  Level Fort Worth Center
07:36PM 32.7560 -95.1271 122° Southeast  Level FlightAware Approximate
07:43PM 32.6501 -94.7557 104° East  Level Estimated
07:44PM 32.6349 -94.7028 107° East  Level Estimated
07:45PM 32.6230 -94.6486 105° East  Level FlightAware Approximate
07:46PM 32.6112 -94.5944 105° East  Level FlightAware Approximate
07:46PM 32.6394 -94.6158 100° East 113 130 5,500  Level Fort Worth Center
07:47PM 32.5993 -94.5403 105° East  Level FlightAware Approximate
07:47PM 32.6328 -94.5939 110° East 113 130 5,500  Level Fort Worth Center
07:48PM 32.5874 -94.4862 105° East  Level FlightAware Approximate
07:48PM 32.6256 -94.5569 103° East 112 129 5,500  Level Fort Worth Center
07:49PM 32.5755 -94.4320 105° East  Level FlightAware Approximate
07:49PM 32.6164 -94.5203 107° East 111 128 5,500  Level Fort Worth Center
07:50PM 32.5635 -94.3779 105° East  Level FlightAware Approximate
07:50PM 32.6072 -94.4836 107° East 116 133 5,500  Level Fort Worth Center
07:51PM 32.5358 -94.3327 104° East  Level Estimated
07:51PM 32.5981 -94.4469 107° East 110 127 5,500  Level Fort Worth Center
07:52PM 32.5205 -94.3078 100° East  Level Estimated
07:52PM 32.5889 -94.4178 110° East 106 122 5,500  Level Fort Worth Center
07:53PM 32.5694 -94.3839 124° Southeast 111 128 5,200 -300 Descending Fort Worth Center
07:54PM 32.5561 -94.3547 118° Southeast 112 129 4,900 -300 Descending Fort Worth Center
07:55PM 32.5367 -94.3258 129° Southeast 106 122 4,600 -360 Descending Fort Worth Center
07:56PM 32.5172 -94.2944 126° Southeast 104 120 4,200 -360 Descending Fort Worth Center
07:57PM 32.5039 -94.2678 121° Southeast 101 116 3,900 -360 Descending Fort Worth Center
07:58PM 32.4886 -94.2436 127° Southeast 93 107 3,600 -300 Descending Fort Worth Center
07:59PM 32.4714 -94.2172 128° Southeast 95 109 3,300 -240 Descending Fort Worth Center
08:00PM 32.4542 -94.1931 130° Southeast 93 107 -240 Descending Fort Worth Center
08:01PM 32.4386 -94.1617 120° Southeast 96 110 780 Level Fort Worth Center
08:02PM 32.4256 -94.1375 123° Southeast 98 113 1,200 Level Fort Worth Center
08:03PM 32.4100 -94.1086 123° Southeast 98 113 2,500 1,200 Climbing Fort Worth Center
08:04PM 32.3950 -94.0869 129° Southeast 94 108 2,500  Level Fort Worth Center
08:05PM 32.3836 -94.0581 115° Southeast 92 106 2,500  Level Fort Worth Center
08:06PM 32.3683 -94.0339 127° Southeast 92 106 2,500  Level Fort Worth Center
08:07PM 32.3533 -94.0125 130° Southeast 91 105 2,500  Level Fort Worth Center
08:08PM 32.3422 -93.9881 118° Southeast 95 109 2,500  Level Fort Worth Center
08:09PM 32.3247 -93.9594 126° Southeast 97 112 2,500  Level Fort Worth Center
08:10PM 32.3094 -93.9328 124° Southeast 98 113 2,500  Level Fort Worth Center
08:11PM 32.2961 -93.9039 119° Southeast 95 109 2,500 -180 Level Fort Worth Center
08:12PM 32.2950 -93.8694 92° East 106 122 2,200 -240 Descending Fort Worth Center
08:13PM 32.2919 -93.8353 96° East 105 121 2,100 -120 Descending Fort Worth Center
08:14PM 32.2911 -93.8033 92° East 99 114 2,000 -60 Descending Fort Worth Center
08:15PM 32.2903 -93.7739 92° East 94 108 2,000  Level Fort Worth Center
08:16PM 32.3058 -93.7364 64° Northeast 111 128 2,000  Level Fort Worth Center
08:17PM 32.3372 -93.7350 North 124 143 2,000  Level Fort Worth Center
08:18PM 32.3650 -93.7586 324° Northwest 119 137 2,000 -360 Level Fort Worth Center
08:19PM 32.3950 -93.7844 324° Northwest 118 136 1,300 -600 Descending Fort Worth Center
08:20PM 32.4122 -93.8033 317° Northwest 96 110 800 -540 Descending Fort Worth Center
08:22PM 32.4333 -93.8167 North  Level FlightAware Approximate
08:29PM 32.4967 -94.1727 North  Level Estimated
08:30PM 32.5057 -94.2236 North  Level Estimated
08:31PM 32.5147 -94.2745 North  Level Estimated
08:32PM 32.5205 -94.3078 North  Level Estimated
08:33PM 32.5205 -94.3078 North  Level Estimated
08:34PM 32.5205 -94.3078 North  Level Estimated
08:35PM 32.5205 -94.3078 North  Level Estimated